sensor_id;sensor_type;location;lat;lon;timestamp;pressure;altitude;pressure_sealevel;temperature;humidity
46682;BME280;34101;53.430;-2.224;2022-09-09T00:02:18;156905.35;;;17.81;91.24
46682;BME280;34101;53.430;-2.224;2022-09-09T00:04:53;156909.73;;;17.82;90.30
46682;BME280;34101;53.430;-2.224;2022-09-09T00:07:33;156918.58;;;17.86;90.67
46682;BME280;34101;53.430;-2.224;2022-09-09T00:10:15;156925.16;;;17.89;90.12
46682;BME280;34101;53.430;-2.224;2022-09-09T00:12:54;156931.41;;;17.91;90.03
46682;BME280;34101;53.430;-2.224;2022-09-09T00:15:28;156934.41;;;17.92;89.88
46682;BME280;34101;53.430;-2.224;2022-09-09T00:18:03;156932.38;;;17.92;89.79
46682;BME280;34101;53.430;-2.224;2022-09-09T00:20:38;156937.34;;;17.94;89.55
46682;BME280;34101;53.430;-2.224;2022-09-09T00:23:12;156934.41;;;17.92;89.48
46682;BME280;34101;53.430;-2.224;2022-09-09T00:25:45;156935.14;;;17.93;90.22
46682;BME280;34101;53.430;-2.224;2022-09-09T00:28:19;156929.38;;;17.90;90.08
46682;BME280;34101;53.430;-2.224;2022-09-09T00:30:47;156931.09;;;17.91;90.02
46682;BME280;34101;53.430;-2.224;2022-09-09T00:33:17;156926.54;;;17.89;89.96
46682;BME280;34101;53.430;-2.224;2022-09-09T00:35:49;156934.82;;;17.93;90.59
46682;BME280;34101;53.430;-2.224;2022-09-09T00:38:19;156934.58;;;17.92;90.40
46682;BME280;34101;53.430;-2.224;2022-09-09T00:40:52;156930.35;;;17.91;90.56
46682;BME280;34101;53.430;-2.224;2022-09-09T00:43:26;156931.49;;;17.91;90.56
46682;BME280;34101;53.430;-2.224;2022-09-09T00:46:09;156922.15;;;17.87;90.78
46682;BME280;34101;53.430;-2.224;2022-09-09T00:48:46;156918.01;;;17.86;91.84
46682;BME280;34101;53.430;-2.224;2022-09-09T00:51:24;156918.91;;;17.86;91.58
46682;BME280;34101;53.430;-2.224;2022-09-09T00:54:10;156919.56;;;17.86;91.74
46682;BME280;34101;53.430;-2.224;2022-09-09T00:56:47;156911.36;;;17.83;91.50
46682;BME280;34101;53.430;-2.224;2022-09-09T00:59:25;156909.00;;;17.82;91.56
46682;BME280;34101;53.430;-2.224;2022-09-09T01:01:55;156912.98;;;17.84;91.64
46682;BME280;34101;53.430;-2.224;2022-09-09T01:04:29;156917.12;;;17.85;91.98
46682;BME280;34101;53.430;-2.224;2022-09-09T01:07:02;156918.99;;;17.86;91.87
46682;BME280;34101;53.430;-2.224;2022-09-09T01:09:37;156921.50;;;17.87;91.92
46682;BME280;34101;53.430;-2.224;2022-09-09T01:12:13;156917.28;;;17.86;92.42
46682;BME280;34101;53.430;-2.224;2022-09-09T01:14:45;156920.53;;;17.87;92.30
46682;BME280;34101;53.430;-2.224;2022-09-09T01:17:17;156924.27;;;17.88;91.49
46682;BME280;34101;53.430;-2.224;2022-09-09T01:19:58;156927.03;;;17.89;92.32
46682;BME280;34101;53.430;-2.224;2022-09-09T01:22:35;156931.49;;;17.91;92.11
46682;BME280;34101;53.430;-2.224;2022-09-09T01:27:16;156940.02;;;17.95;92.16
46682;BME280;34101;53.430;-2.224;2022-09-09T01:29:44;156939.37;;;17.94;92.26
46682;BME280;34101;53.430;-2.224;2022-09-09T01:32:45;156943.51;;;17.96;92.29
46682;BME280;34101;53.430;-2.224;2022-09-09T01:35:18;156955.20;;;18.01;92.21
46682;BME280;34101;53.430;-2.224;2022-09-09T01:37:48;156958.20;;;18.02;91.61
46682;BME280;34101;53.430;-2.224;2022-09-09T01:40:15;156954.14;;;18.00;92.15
46682;BME280;34101;53.430;-2.224;2022-09-09T01:42:43;156955.93;;;18.01;92.52
46682;BME280;34101;53.430;-2.224;2022-09-09T01:45:10;156958.93;;;18.02;92.49
46682;BME280;34101;53.430;-2.224;2022-09-09T01:47:38;156960.56;;;18.03;92.48
46682;BME280;34101;53.430;-2.224;2022-09-09T01:50:07;156960.80;;;18.03;93.68
46682;BME280;34101;53.430;-2.224;2022-09-09T01:52:37;156963.64;;;18.04;93.29
46682;BME280;34101;53.430;-2.224;2022-09-09T01:55:07;156965.43;;;18.05;93.75
46682;BME280;34101;53.430;-2.224;2022-09-09T01:57:39;156967.70;;;18.06;93.64
46682;BME280;34101;53.430;-2.224;2022-09-09T02:00:10;156967.87;;;18.06;93.75
46682;BME280;34101;53.430;-2.224;2022-09-09T02:02:44;156970.95;;;18.07;93.57
46682;BME280;34101;53.430;-2.224;2022-09-09T02:05:25;156971.44;;;18.07;94.29
46682;BME280;34101;53.430;-2.224;2022-09-09T02:08:00;156969.90;;;18.07;94.24
46682;BME280;34101;53.430;-2.224;2022-09-09T02:10:33;156960.88;;;18.03;94.70
46682;BME280;34101;53.430;-2.224;2022-09-09T02:13:09;156950.41;;;17.99;95.55
46682;BME280;34101;53.430;-2.224;2022-09-09T02:15:42;156942.53;;;17.96;95.03
46682;BME280;34101;53.430;-2.224;2022-09-09T02:18:13;156943.10;;;17.96;95.93
46682;BME280;34101;53.430;-2.224;2022-09-09T02:20:44;156940.83;;;17.95;95.58
46682;BME280;34101;53.430;-2.224;2022-09-09T02:23:13;156935.06;;;17.93;95.94
46682;BME280;34101;53.430;-2.224;2022-09-09T02:25:42;156932.79;;;17.92;96.65
46682;BME280;34101;53.430;-2.224;2022-09-09T02:28:11;156932.71;;;17.92;96.28
46682;BME280;34101;53.430;-2.224;2022-09-09T02:30:41;156937.82;;;17.94;97.03
46682;BME280;34101;53.430;-2.224;2022-09-09T02:33:12;156932.47;;;17.92;96.52
46682;BME280;34101;53.430;-2.224;2022-09-09T02:35:40;156928.24;;;17.90;98.39
46682;BME280;34101;53.430;-2.224;2022-09-09T02:38:12;156931.00;;;17.91;97.96
46682;BME280;34101;53.430;-2.224;2022-09-09T02:40:40;156934.33;;;17.92;97.94
46682;BME280;34101;53.430;-2.224;2022-09-09T02:43:07;156933.60;;;17.92;98.06
46682;BME280;34101;53.430;-2.224;2022-09-09T02:45:41;156930.03;;;17.91;98.08
46682;BME280;34101;53.430;-2.224;2022-09-09T02:48:14;156923.13;;;17.88;98.77
46682;BME280;34101;53.430;-2.224;2022-09-09T02:50:52;156919.07;;;17.86;98.82
46682;BME280;34101;53.430;-2.224;2022-09-09T02:53:27;156912.09;;;17.83;100.00
46682;BME280;34101;53.430;-2.224;2022-09-09T02:56:04;156915.98;;;17.85;99.46
46682;BME280;34101;53.430;-2.224;2022-09-09T02:58:32;156907.95;;;17.82;100.00
46682;BME280;34101;53.430;-2.224;2022-09-09T03:00:59;156899.99;;;17.79;100.00
46682;BME280;34101;53.430;-2.224;2022-09-09T03:03:27;156900.72;;;17.79;100.00
46682;BME280;34101;53.430;-2.224;2022-09-09T03:05:54;156894.96;;;17.77;100.00
46682;BME280;34101;53.430;-2.224;2022-09-09T03:08:22;156891.47;;;17.75;100.00
46682;BME280;34101;53.430;-2.224;2022-09-09T03:10:50;156893.74;;;17.76;100.00
46682;BME280;34101;53.430;-2.224;2022-09-09T03:13:18;156886.76;;;17.73;100.00
46682;BME280;34101;53.430;-2.224;2022-09-09T03:15:45;156877.91;;;17.70;100.00
46682;BME280;34101;53.430;-2.224;2022-09-09T03:18:14;156872.31;;;17.67;100.00
46682;BME280;34101;53.430;-2.224;2022-09-09T03:20:42;156865.81;;;17.65;100.00
46682;BME280;34101;53.430;-2.224;2022-09-09T03:23:09;156856.72;;;17.61;100.00
46682;BME280;34101;53.430;-2.224;2022-09-09T03:25:36;156854.85;;;17.60;100.00
46682;BME280;34101;53.430;-2.224;2022-09-09T03:28:03;156854.20;;;17.60;100.00
46682;BME280;34101;53.430;-2.224;2022-09-09T03:30:31;156851.69;;;17.59;100.00
46682;BME280;34101;53.430;-2.224;2022-09-09T03:32:58;156846.33;;;17.57;100.00
46682;BME280;34101;53.430;-2.224;2022-09-09T03:35:25;156835.05;;;17.53;100.00
46682;BME280;34101;53.430;-2.224;2022-09-09T03:37:52;156822.14;;;17.47;100.00
46682;BME280;34101;53.430;-2.224;2022-09-09T03:40:19;156820.76;;;17.47;100.00
46682;BME280;34101;53.430;-2.224;2022-09-09T03:42:47;156815.97;;;17.45;100.00
46682;BME280;34101;53.430;-2.224;2022-09-09T03:45:14;156808.34;;;17.42;100.00
46682;BME280;34101;53.430;-2.224;2022-09-09T03:47:41;156807.53;;;17.41;100.00
46682;BME280;34101;53.430;-2.224;2022-09-09T03:50:08;156815.24;;;17.45;100.00
46682;BME280;34101;53.430;-2.224;2022-09-09T03:52:36;156814.51;;;17.44;100.00
46682;BME280;34101;53.430;-2.224;2022-09-09T03:55:04;156821.41;;;17.47;100.00
46682;BME280;34101;53.430;-2.224;2022-09-09T03:57:34;156819.14;;;17.46;100.00
46682;BME280;34101;53.430;-2.224;2022-09-09T04:00:03;156827.58;;;17.50;100.00
46682;BME280;34101;53.430;-2.224;2022-09-09T04:02:30;156831.07;;;17.51;100.00
46682;BME280;34101;53.430;-2.224;2022-09-09T04:04:57;156829.53;;;17.50;100.00
46682;BME280;34101;53.430;-2.224;2022-09-09T04:07:24;156826.44;;;17.49;100.00
46682;BME280;34101;53.430;-2.224;2022-09-09T04:09:52;156814.59;;;17.44;100.00
46682;BME280;34101;53.430;-2.224;2022-09-09T04:12:20;156808.10;;;17.42;100.00
46682;BME280;34101;53.430;-2.224;2022-09-09T04:14:47;156794.54;;;17.36;100.00
46682;BME280;34101;53.430;-2.224;2022-09-09T04:17:15;156786.51;;;17.33;100.00
46682;BME280;34101;53.430;-2.224;2022-09-09T04:19:42;156772.55;;;17.27;100.00
46682;BME280;34101;53.430;-2.224;2022-09-09T04:22:09;156769.30;;;17.26;100.00
46682;BME280;34101;53.430;-2.224;2022-09-09T04:24:36;156769.95;;;17.26;100.00
46682;BME280;34101;53.430;-2.224;2022-09-09T04:27:03;156769.46;;;17.26;100.00
46682;BME280;34101;53.430;-2.224;2022-09-09T04:29:31;156765.81;;;17.25;100.00
46682;BME280;34101;53.430;-2.224;2022-09-09T04:31:58;156762.16;;;17.23;100.00
46682;BME280;34101;53.430;-2.224;2022-09-09T04:34:25;156758.91;;;17.22;100.00
46682;BME280;34101;53.430;-2.224;2022-09-09T04:36:53;156754.20;;;17.20;100.00
46682;BME280;34101;53.430;-2.224;2022-09-09T04:39:20;156743.33;;;17.16;100.00
46682;BME280;34101;53.430;-2.224;2022-09-09T04:41:47;156740.00;;;17.14;100.00
46682;BME280;34101;53.430;-2.224;2022-09-09T04:44:15;156756.80;;;17.21;100.00
46682;BME280;34101;53.430;-2.224;2022-09-09T04:46:42;156780.34;;;17.31;100.00
46682;BME280;34101;53.430;-2.224;2022-09-09T04:49:10;156799.65;;;17.38;100.00
46682;BME280;34101;53.430;-2.224;2022-09-09T04:51:37;156813.13;;;17.44;100.00
46682;BME280;34101;53.430;-2.224;2022-09-09T04:54:05;156825.06;;;17.49;100.00
46682;BME280;34101;53.430;-2.224;2022-09-09T04:56:33;156829.12;;;17.50;100.00
46682;BME280;34101;53.430;-2.224;2022-09-09T04:59:01;156836.91;;;17.53;100.00
46682;BME280;34101;53.430;-2.224;2022-09-09T05:01:28;156840.32;;;17.55;100.00
46682;BME280;34101;53.430;-2.224;2022-09-09T05:03:55;156842.76;;;17.56;100.00
46682;BME280;34101;53.430;-2.224;2022-09-09T05:06:23;156843.89;;;17.56;100.00
46682;BME280;34101;53.430;-2.224;2022-09-09T05:08:50;156858.02;;;17.62;100.00
46682;BME280;34101;53.430;-2.224;2022-09-09T05:11:20;156865.41;;;17.65;100.00
46682;BME280;34101;53.430;-2.224;2022-09-09T05:13:47;156859.64;;;17.62;100.00
46682;BME280;34101;53.430;-2.224;2022-09-09T05:16:15;156857.45;;;17.62;100.00
46682;BME280;34101;53.430;-2.224;2022-09-09T05:18:43;156852.50;;;17.60;100.00
46682;BME280;34101;53.430;-2.224;2022-09-09T05:21:12;156850.63;;;17.59;100.00
46682;BME280;34101;53.430;-2.224;2022-09-09T05:23:40;156847.79;;;17.58;100.00
46682;BME280;34101;53.430;-2.224;2022-09-09T05:26:11;156843.65;;;17.56;100.00
46682;BME280;34101;53.430;-2.224;2022-09-09T05:28:38;156835.61;;;17.53;100.00
46682;BME280;34101;53.430;-2.224;2022-09-09T05:31:08;156828.71;;;17.50;100.00
46682;BME280;34101;53.430;-2.224;2022-09-09T05:33:36;156829.04;;;17.50;100.00
46682;BME280;34101;53.430;-2.224;2022-09-09T05:36:06;156826.93;;;17.49;100.00
46682;BME280;34101;53.430;-2.224;2022-09-09T05:38:35;156829.36;;;17.50;100.00
46682;BME280;34101;53.430;-2.224;2022-09-09T05:41:03;156838.62;;;17.54;100.00
46682;BME280;34101;53.430;-2.224;2022-09-09T05:43:30;156848.85;;;17.58;100.00
46682;BME280;34101;53.430;-2.224;2022-09-09T05:46:02;156857.78;;;17.62;100.00
46682;BME280;34101;53.430;-2.224;2022-09-09T05:48:31;156869.14;;;17.66;100.00
46682;BME280;34101;53.430;-2.224;2022-09-09T05:50:59;156872.23;;;17.67;100.00
46682;BME280;34101;53.430;-2.224;2022-09-09T05:53:26;156871.25;;;17.67;100.00
46682;BME280;34101;53.430;-2.224;2022-09-09T05:56:01;156861.75;;;17.63;100.00
46682;BME280;34101;53.430;-2.224;2022-09-09T05:58:30;156856.64;;;17.61;100.00
46682;BME280;34101;53.430;-2.224;2022-09-09T06:01:05;156850.96;;;17.59;100.00
46682;BME280;34101;53.430;-2.224;2022-09-09T06:03:34;156853.96;;;17.60;100.00
46682;BME280;34101;53.430;-2.224;2022-09-09T06:06:02;156855.26;;;17.61;100.00
46682;BME280;34101;53.430;-2.224;2022-09-09T06:08:30;156857.78;;;17.62;100.00
46682;BME280;34101;53.430;-2.224;2022-09-09T06:11:02;156859.48;;;17.62;100.00
46682;BME280;34101;53.430;-2.224;2022-09-09T06:13:30;156863.86;;;17.64;100.00
46682;BME280;34101;53.430;-2.224;2022-09-09T06:15:59;156869.71;;;17.66;100.00
46682;BME280;34101;53.430;-2.224;2022-09-09T06:18:26;156871.25;;;17.67;100.00
46682;BME280;34101;53.430;-2.224;2022-09-09T06:20:55;156859.89;;;17.62;100.00
46682;BME280;34101;53.430;-2.224;2022-09-09T06:23:23;156850.23;;;17.59;100.00
46682;BME280;34101;53.430;-2.224;2022-09-09T06:25:50;156838.13;;;17.54;100.00
46682;BME280;34101;53.430;-2.224;2022-09-09T06:28:18;156835.37;;;17.53;100.00
46682;BME280;34101;53.430;-2.224;2022-09-09T06:30:45;156846.49;;;17.57;100.00
46682;BME280;34101;53.430;-2.224;2022-09-09T06:33:12;156872.63;;;17.68;100.00
46682;BME280;34101;53.430;-2.224;2022-09-09T06:35:39;156895.61;;;17.77;100.00
46682;BME280;34101;53.430;-2.224;2022-09-09T06:38:07;156919.07;;;17.86;100.00
46682;BME280;34101;53.430;-2.224;2022-09-09T06:40:34;156936.85;;;17.93;100.00
46682;BME280;34101;53.430;-2.224;2022-09-09T06:43:02;156957.31;;;18.02;100.00
46682;BME280;34101;53.430;-2.224;2022-09-09T06:45:29;156978.91;;;18.10;100.00
46682;BME280;34101;53.430;-2.224;2022-09-09T06:47:56;156998.80;;;18.18;100.00
46682;BME280;34101;53.430;-2.224;2022-09-09T06:50:24;157017.81;;;18.26;100.00
46682;BME280;34101;53.430;-2.224;2022-09-09T06:52:51;157023.82;;;18.28;100.00
46682;BME280;34101;53.430;-2.224;2022-09-09T06:55:18;157053.94;;;18.40;100.00
46682;BME280;34101;53.430;-2.224;2022-09-09T06:57:46;157088.95;;;18.54;100.00
46682;BME280;34101;53.430;-2.224;2022-09-09T07:00:14;157134.92;;;18.73;100.00
46682;BME280;34101;53.430;-2.224;2022-09-09T07:02:42;157173.51;;;18.88;100.00
46682;BME280;34101;53.430;-2.224;2022-09-09T07:05:09;157196.50;;;18.97;100.00
46682;BME280;34101;53.430;-2.224;2022-09-09T07:07:36;157201.70;;;19.00;100.00
46682;BME280;34101;53.430;-2.224;2022-09-09T07:10:05;157206.33;;;19.01;100.00
46682;BME280;34101;53.430;-2.224;2022-09-09T07:12:32;157200.48;;;18.99;100.00
46682;BME280;34101;53.430;-2.224;2022-09-09T07:15:00;157192.43;;;18.96;100.00
46682;BME280;34101;53.430;-2.224;2022-09-09T07:17:27;157189.51;;;18.95;99.93
46682;BME280;34101;53.430;-2.224;2022-09-09T07:19:54;157187.15;;;18.94;100.00
46682;BME280;34101;53.430;-2.224;2022-09-09T07:22:21;157189.19;;;18.95;100.00
46682;BME280;34101;53.430;-2.224;2022-09-09T07:24:49;157188.37;;;18.94;99.56
46682;BME280;34101;53.430;-2.224;2022-09-09T07:27:16;157181.22;;;18.91;100.00
46682;BME280;34101;53.430;-2.224;2022-09-09T07:29:44;157181.87;;;18.92;100.00
46682;BME280;34101;53.430;-2.224;2022-09-09T07:32:11;157192.27;;;18.96;98.99
46682;BME280;34101;53.430;-2.224;2022-09-09T07:34:39;157213.07;;;19.04;98.50
46682;BME280;34101;53.430;-2.224;2022-09-09T07:37:06;157232.65;;;19.12;96.68
46682;BME280;34101;53.430;-2.224;2022-09-09T07:39:34;157268.97;;;19.27;95.05
46682;BME280;34101;53.430;-2.224;2022-09-09T07:42:01;157282.94;;;19.32;93.78
46682;BME280;34101;53.430;-2.224;2022-09-09T07:44:28;157294.40;;;19.37;93.07
46682;BME280;34101;53.430;-2.224;2022-09-09T07:46:55;157298.71;;;19.38;92.70
46682;BME280;34101;53.430;-2.224;2022-09-09T07:49:23;157299.19;;;19.39;90.52
46682;BME280;34101;53.430;-2.224;2022-09-09T07:51:50;157322.11;;;19.48;89.47
46682;BME280;34101;53.430;-2.224;2022-09-09T07:54:19;157359.16;;;19.63;88.00
46682;BME280;34101;53.430;-2.224;2022-09-09T07:56:48;157387.53;;;19.74;86.37
46682;BME280;34101;53.430;-2.224;2022-09-09T07:59:16;157394.11;;;19.77;85.06
46682;BME280;34101;53.430;-2.224;2022-09-09T08:01:45;157396.55;;;19.78;84.18
46682;BME280;34101;53.430;-2.224;2022-09-09T08:04:15;157416.38;;;19.86;84.65
46682;BME280;34101;53.430;-2.224;2022-09-09T08:06:44;157434.59;;;19.93;83.82
46682;BME280;34101;53.430;-2.224;2022-09-09T08:09:13;157437.75;;;19.94;83.30
46682;BME280;34101;53.430;-2.224;2022-09-09T08:11:41;157436.94;;;19.94;83.97
46682;BME280;34101;53.430;-2.224;2022-09-09T08:14:10;157441.01;;;19.95;84.39
46682;BME280;34101;53.430;-2.224;2022-09-09T08:16:40;157448.08;;;19.98;84.16
46682;BME280;34101;53.430;-2.224;2022-09-09T08:19:08;157463.68;;;20.05;83.96
46682;BME280;34101;53.430;-2.224;2022-09-09T08:21:38;157466.94;;;20.06;82.76
46682;BME280;34101;53.430;-2.224;2022-09-09T08:24:06;157454.66;;;20.01;82.73
46682;BME280;34101;53.430;-2.224;2022-09-09T08:26:36;157445.31;;;19.97;82.49
46682;BME280;34101;53.430;-2.224;2022-09-09T08:29:05;157432.88;;;19.92;82.86
46682;BME280;34101;53.430;-2.224;2022-09-09T08:31:35;157435.24;;;19.93;82.93
46682;BME280;34101;53.430;-2.224;2022-09-09T08:34:04;157428.81;;;19.91;82.58
46682;BME280;34101;53.430;-2.224;2022-09-09T08:36:35;157404.92;;;19.81;83.06
46682;BME280;34101;53.430;-2.224;2022-09-09T08:39:04;157392.24;;;19.76;83.51
46682;BME280;34101;53.430;-2.224;2022-09-09T08:41:44;157395.25;;;19.77;83.87
46682;BME280;34101;53.430;-2.224;2022-09-09T08:44:25;157399.31;;;19.79;83.77
46682;BME280;34101;53.430;-2.224;2022-09-09T08:47:02;157404.27;;;19.81;83.74
46682;BME280;34101;53.430;-2.224;2022-09-09T08:49:47;157407.60;;;19.82;83.79
46682;BME280;34101;53.430;-2.224;2022-09-09T08:52:25;157416.38;;;19.86;82.96
46682;BME280;34101;53.430;-2.224;2022-09-09T08:54:57;157427.68;;;19.90;82.37
46682;BME280;34101;53.430;-2.224;2022-09-09T08:57:27;157467.75;;;20.06;82.33
46682;BME280;34101;53.430;-2.224;2022-09-09T08:59:55;157514.25;;;20.25;81.26
46682;BME280;34101;53.430;-2.224;2022-09-09T09:02:26;157570.42;;;20.47;79.03
46682;BME280;34101;53.430;-2.224;2022-09-09T09:05:11;157635.96;;;20.74;78.05
46682;BME280;34101;53.430;-2.224;2022-09-09T09:07:53;157979.71;;;22.11;72.01
46682;BME280;34101;53.430;-2.224;2022-09-09T09:10:34;158040.09;;;22.35;67.92
46682;BME280;34101;53.430;-2.224;2022-09-09T09:13:13;158053.76;;;22.41;68.38
46682;BME280;34101;53.430;-2.224;2022-09-09T09:15:42;158090.38;;;22.56;66.49
46682;BME280;34101;53.430;-2.224;2022-09-09T09:18:12;158275.57;;;23.30;62.75
46682;BME280;34101;53.430;-2.224;2022-09-09T09:20:47;158386.64;;;23.74;60.78
46682;BME280;34101;53.430;-2.224;2022-09-09T09:23:22;158449.18;;;23.99;59.39
46682;BME280;34101;53.430;-2.224;2022-09-09T09:25:50;158448.29;;;23.99;59.89
46682;BME280;34101;53.430;-2.224;2022-09-09T09:28:22;158355.45;;;23.62;59.76
46682;BME280;34101;53.430;-2.224;2022-09-09T09:30:56;158177.64;;;22.90;62.37
46682;BME280;34101;53.430;-2.224;2022-09-09T09:33:28;158217.85;;;23.07;62.20
46682;BME280;34101;53.430;-2.224;2022-09-09T09:35:58;158414.82;;;23.85;60.75
46682;BME280;34101;53.430;-2.224;2022-09-09T09:38:27;158430.53;;;23.92;58.74
46682;BME280;34101;53.430;-2.224;2022-09-09T09:40:57;158380.86;;;23.72;59.64
46682;BME280;34101;53.430;-2.224;2022-09-09T09:43:27;158377.84;;;23.71;59.30
46682;BME280;34101;53.430;-2.224;2022-09-09T09:45:56;158468.49;;;24.07;58.45
46682;BME280;34101;53.430;-2.224;2022-09-09T09:48:24;158401.79;;;23.80;58.95
46682;BME280;34101;53.430;-2.224;2022-09-09T09:50:55;158286.56;;;23.34;61.09
46682;BME280;34101;53.430;-2.224;2022-09-09T09:53:25;158135.96;;;22.74;63.46
46682;BME280;34101;53.430;-2.224;2022-09-09T09:55:56;158086.72;;;22.54;63.56
46682;BME280;34101;53.430;-2.224;2022-09-09T09:58:25;158004.85;;;22.21;64.57
46682;BME280;34101;53.430;-2.224;2022-09-09T10:00:54;157939.59;;;21.95;65.83
46682;BME280;34101;53.430;-2.224;2022-09-09T10:03:25;157888.26;;;21.75;66.66
46682;BME280;34101;53.430;-2.224;2022-09-09T10:05:53;157841.64;;;21.56;67.44
46682;BME280;34101;53.430;-2.224;2022-09-09T10:08:21;157782.34;;;21.32;68.69
46682;BME280;34101;53.430;-2.224;2022-09-09T10:11:29;157708.82;;;21.03;70.30
46682;BME280;34101;53.430;-2.224;2022-09-09T10:14:04;157866.53;;;21.66;68.90
46682;BME280;34101;53.430;-2.224;2022-09-09T10:16:45;158108.53;;;22.63;63.84
46682;BME280;34101;53.430;-2.224;2022-09-09T10:19:20;158254.08;;;23.21;61.19
46682;BME280;34101;53.430;-2.224;2022-09-09T10:22:04;158166.57;;;22.86;61.76
46682;BME280;34101;53.430;-2.224;2022-09-09T10:24:46;158070.85;;;22.48;63.47
46682;BME280;34101;53.430;-2.224;2022-09-09T10:27:21;158011.12;;;22.24;64.82
46682;BME280;34101;53.430;-2.224;2022-09-09T10:30:01;158022.83;;;22.28;64.68
46682;BME280;34101;53.430;-2.224;2022-09-09T10:32:38;158193.35;;;22.97;59.81
46682;BME280;34101;53.430;-2.224;2022-09-09T10:35:19;158578.29;;;24.51;56.13
46682;BME280;34101;53.430;-2.224;2022-09-09T10:38:17;158845.32;;;25.57;53.22
46682;BME280;34101;53.430;-2.224;2022-09-09T10:41:02;159118.83;;;26.67;49.40
46682;BME280;34101;53.430;-2.224;2022-09-09T10:43:48;159439.48;;;27.95;46.50
46682;BME280;34101;53.430;-2.224;2022-09-09T10:46:26;159368.17;;;27.66;47.51
46682;BME280;34101;53.430;-2.224;2022-09-09T10:49:05;159290.92;;;27.35;47.96
46682;BME280;34101;53.430;-2.224;2022-09-09T10:51:40;159351.45;;;27.60;46.73
46682;BME280;34101;53.430;-2.224;2022-09-09T10:54:23;159685.53;;;28.93;43.76
46682;BME280;34101;53.430;-2.224;2022-09-09T10:56:56;159536.66;;;28.33;43.73
46682;BME280;34101;53.430;-2.224;2022-09-09T10:59:30;159359.85;;;27.63;45.00
46682;BME280;34101;53.430;-2.224;2022-09-09T11:02:03;159209.27;;;27.03;46.44
46682;BME280;34101;53.430;-2.224;2022-09-09T11:04:37;158970.03;;;26.07;48.78
46682;BME280;34101;53.430;-2.224;2022-09-09T11:07:09;158821.76;;;25.48;50.50
46682;BME280;34101;53.430;-2.224;2022-09-09T11:09:39;158694.55;;;24.97;52.07
46682;BME280;34101;53.430;-2.224;2022-09-09T11:12:15;158613.32;;;24.65;53.43
46682;BME280;34101;53.430;-2.224;2022-09-09T11:14:47;158445.84;;;23.98;55.78
46682;BME280;34101;53.430;-2.224;2022-09-09T11:17:20;158325.48;;;23.50;57.98
46682;BME280;34101;53.430;-2.224;2022-09-09T11:19:48;158231.28;;;23.12;59.09
46682;BME280;34101;53.430;-2.224;2022-09-09T11:22:22;158228.03;;;23.11;59.54
46682;BME280;34101;53.430;-2.224;2022-09-09T11:24:56;158170.07;;;22.87;61.90
46682;BME280;34101;53.430;-2.224;2022-09-09T11:27:29;158136.21;;;22.74;64.04
46682;BME280;34101;53.430;-2.224;2022-09-09T11:30:05;158070.44;;;22.48;64.37
46682;BME280;34101;53.430;-2.224;2022-09-09T11:33:14;158009.81;;;22.23;66.34
46682;BME280;34101;53.430;-2.224;2022-09-09T11:36:00;157923.48;;;21.89;68.57
46682;BME280;34101;53.430;-2.224;2022-09-09T11:38:38;157889.64;;;21.75;70.10
46682;BME280;34101;53.430;-2.224;2022-09-09T11:41:10;157921.86;;;21.88;70.38
46682;BME280;34101;53.430;-2.224;2022-09-09T11:43:41;157931.78;;;21.92;69.19
46682;BME280;34101;53.430;-2.224;2022-09-09T11:46:10;157950.82;;;22.00;68.49
46682;BME280;34101;53.430;-2.224;2022-09-09T11:48:39;157952.45;;;22.00;67.87
46682;BME280;34101;53.430;-2.224;2022-09-09T11:51:09;157955.70;;;22.02;68.50
46682;BME280;34101;53.430;-2.224;2022-09-09T11:53:48;157962.70;;;22.04;68.00
46682;BME280;34101;53.430;-2.224;2022-09-09T11:56:26;157957.41;;;22.02;69.12
46682;BME280;34101;53.430;-2.224;2022-09-09T11:58:56;157906.89;;;21.82;72.07
46682;BME280;34101;53.430;-2.224;2022-09-09T12:01:33;157792.92;;;21.36;76.20
46682;BME280;34101;53.430;-2.224;2022-09-09T12:04:13;157725.73;;;21.10;78.44
46682;BME280;34101;53.430;-2.224;2022-09-09T12:06:43;157588.88;;;20.55;83.40
46682;BME280;34101;53.430;-2.224;2022-09-09T12:09:18;157458.97;;;20.03;93.08
46682;BME280;34101;53.430;-2.224;2022-09-09T12:11:46;157281.24;;;19.31;100.00
46682;BME280;34101;53.430;-2.224;2022-09-09T12:14:21;157180.66;;;18.91;100.00
46682;BME280;34101;53.430;-2.224;2022-09-09T12:16:49;157164.65;;;18.85;100.00
46682;BME280;34101;53.430;-2.224;2022-09-09T12:19:20;157163.19;;;18.84;100.00
46682;BME280;34101;53.430;-2.224;2022-09-09T12:21:54;157161.97;;;18.84;100.00
46682;BME280;34101;53.430;-2.224;2022-09-09T12:24:32;157138.98;;;18.74;100.00
46682;BME280;34101;53.430;-2.224;2022-09-09T12:27:07;157138.90;;;18.74;100.00
46682;BME280;34101;53.430;-2.224;2022-09-09T12:29:43;157163.60;;;18.84;100.00
46682;BME280;34101;53.430;-2.224;2022-09-09T12:32:17;157163.51;;;18.84;100.00
46682;BME280;34101;53.430;-2.224;2022-09-09T12:34:48;157153.77;;;18.80;100.00
46682;BME280;34101;53.430;-2.224;2022-09-09T12:37:26;157151.82;;;18.80;100.00
46682;BME280;34101;53.430;-2.224;2022-09-09T12:39:56;157166.28;;;18.85;100.00
46682;BME280;34101;53.430;-2.224;2022-09-09T12:42:25;157198.36;;;18.98;100.00
46682;BME280;34101;53.430;-2.224;2022-09-09T12:44:55;157210.39;;;19.03;100.00
46682;BME280;34101;53.430;-2.224;2022-09-09T12:47:28;157236.63;;;19.14;100.00
46682;BME280;34101;53.430;-2.224;2022-09-09T12:49:58;157260.76;;;19.23;100.00
46682;BME280;34101;53.430;-2.224;2022-09-09T12:52:28;157301.79;;;19.40;100.00
46682;BME280;34101;53.430;-2.224;2022-09-09T12:54:58;157363.80;;;19.65;100.00
46682;BME280;34101;53.430;-2.224;2022-09-09T12:57:34;157401.67;;;19.80;100.00
46682;BME280;34101;53.430;-2.224;2022-09-09T13:00:11;157467.75;;;20.06;100.00